Terminal Aerodrome Forecast
Issued by NWS Greer, SC

Home | Current Version | Previous Version | Text Only | Print | Product List | Glossary On
Versions: 1 2 3 4 5 6 7 8 9 10 11 12 13 14 15 16 17 18 19 20 21 22 23 24 25 26 27 28 29 30 31 32
000
FTUS42 KGSP 020528
TAFAVL
TAF
KAVL 020528Z 0206/0306 VRB03KT P6SM OVC100
     FM020900 00000KT 5SM BR SCT010 BKN050
     FM021300 31003KT P6SM BKN060 PROB30 0217/0221 4SM TSRA BKN030CB
     FM030100 21005KT P6SM OVC045=

USA.gov is the U.S. government's official web portal to all federal, state and local government web resources and services.